sensor_id;sensor_type;location;lat;lon;timestamp;P1;durP1;ratioP1;P2;durP2;ratioP2
69795;SDS011;57073;45.650;9.612;2023-11-19T00:01:47;8.03;;;4.80;;
69795;SDS011;57073;45.650;9.612;2023-11-19T00:06:47;7.47;;;4.57;;
69795;SDS011;57073;45.650;9.612;2023-11-19T00:11:47;7.27;;;4.80;;
69795;SDS011;57073;45.650;9.612;2023-11-19T00:16:48;8.70;;;4.53;;
69795;SDS011;57073;45.650;9.612;2023-11-19T00:21:51;8.05;;;4.70;;
69795;SDS011;57073;45.650;9.612;2023-11-19T00:26:51;8.10;;;4.33;;
69795;SDS011;57073;45.650;9.612;2023-11-19T00:31:51;8.23;;;4.40;;
69795;SDS011;57073;45.650;9.612;2023-11-19T00:36:52;8.00;;;4.73;;
69795;SDS011;57073;45.650;9.612;2023-11-19T00:41:52;8.53;;;4.63;;
69795;SDS011;57073;45.650;9.612;2023-11-19T00:46:53;8.23;;;4.67;;
69795;SDS011;57073;45.650;9.612;2023-11-19T00:51:53;8.27;;;4.63;;
69795;SDS011;57073;45.650;9.612;2023-11-19T00:56:53;8.27;;;4.53;;
69795;SDS011;57073;45.650;9.612;2023-11-19T01:01:54;7.73;;;4.80;;
69795;SDS011;57073;45.650;9.612;2023-11-19T01:06:56;8.63;;;4.90;;
69795;SDS011;57073;45.650;9.612;2023-11-19T01:11:56;9.20;;;5.10;;
69795;SDS011;57073;45.650;9.612;2023-11-19T01:16:57;7.50;;;4.37;;
69795;SDS011;57073;45.650;9.612;2023-11-19T01:21:57;6.50;;;4.30;;
69795;SDS011;57073;45.650;9.612;2023-11-19T01:26:58;7.43;;;4.30;;
69795;SDS011;57073;45.650;9.612;2023-11-19T01:31:59;7.43;;;3.70;;
69795;SDS011;57073;45.650;9.612;2023-11-19T01:37:00;7.37;;;4.13;;
69795;SDS011;57073;45.650;9.612;2023-11-19T01:42:00;8.77;;;4.17;;
69795;SDS011;57073;45.650;9.612;2023-11-19T01:47:01;6.77;;;3.97;;
69795;SDS011;57073;45.650;9.612;2023-11-19T01:52:02;7.57;;;4.03;;
69795;SDS011;57073;45.650;9.612;2023-11-19T01:57:03;6.17;;;4.20;;
69795;SDS011;57073;45.650;9.612;2023-11-19T02:02:04;6.90;;;4.13;;
69795;SDS011;57073;45.650;9.612;2023-11-19T02:07:06;6.68;;;3.63;;
69795;SDS011;57073;45.650;9.612;2023-11-19T02:12:06;6.13;;;3.30;;
69795;SDS011;57073;45.650;9.612;2023-11-19T02:17:24;5.45;;;3.50;;
69795;SDS011;57073;45.650;9.612;2023-11-19T02:22:28;4.32;;;2.90;;
69795;SDS011;57073;45.650;9.612;2023-11-19T02:32:55;7.20;;;3.40;;
69795;SDS011;57073;45.650;9.612;2023-11-19T02:37:58;4.50;;;3.03;;
69795;SDS011;57073;45.650;9.612;2023-11-19T02:43:02;5.90;;;2.90;;
69795;SDS011;57073;45.650;9.612;2023-11-19T02:48:05;8.20;;;2.80;;
69795;SDS011;57073;45.650;9.612;2023-11-19T02:53:06;7.40;;;2.65;;
69795;SDS011;57073;45.650;9.612;2023-11-19T02:58:06;6.53;;;2.77;;
69795;SDS011;57073;45.650;9.612;2023-11-19T03:03:19;4.85;;;2.40;;
69795;SDS011;57073;45.650;9.612;2023-11-19T03:08:22;4.87;;;2.73;;
69795;SDS011;57073;45.650;9.612;2023-11-19T03:13:22;3.93;;;2.20;;
69795;SDS011;57073;45.650;9.612;2023-11-19T03:18:23;4.90;;;2.50;;
69795;SDS011;57073;45.650;9.612;2023-11-19T03:23:24;3.73;;;2.10;;
69795;SDS011;57073;45.650;9.612;2023-11-19T03:28:27;4.10;;;2.47;;
69795;SDS011;57073;45.650;9.612;2023-11-19T03:33:28;4.30;;;2.50;;
69795;SDS011;57073;45.650;9.612;2023-11-19T03:38:28;4.10;;;2.23;;
69795;SDS011;57073;45.650;9.612;2023-11-19T03:43:30;4.20;;;1.90;;
69795;SDS011;57073;45.650;9.612;2023-11-19T03:48:31;3.45;;;1.98;;
69795;SDS011;57073;45.650;9.612;2023-11-19T03:53:31;4.27;;;1.90;;
69795;SDS011;57073;45.650;9.612;2023-11-19T03:58:32;3.50;;;1.60;;
69795;SDS011;57073;45.650;9.612;2023-11-19T04:03:32;3.97;;;1.93;;
69795;SDS011;57073;45.650;9.612;2023-11-19T04:08:33;4.13;;;2.03;;
69795;SDS011;57073;45.650;9.612;2023-11-19T04:13:33;4.50;;;2.10;;
69795;SDS011;57073;45.650;9.612;2023-11-19T04:18:34;4.03;;;2.20;;
69795;SDS011;57073;45.650;9.612;2023-11-19T04:23:34;4.03;;;1.80;;
69795;SDS011;57073;45.650;9.612;2023-11-19T04:28:35;4.53;;;1.80;;
69795;SDS011;57073;45.650;9.612;2023-11-19T04:33:35;3.63;;;1.97;;
69795;SDS011;57073;45.650;9.612;2023-11-19T04:38:36;4.13;;;1.77;;
69795;SDS011;57073;45.650;9.612;2023-11-19T04:43:38;3.43;;;1.63;;
69795;SDS011;57073;45.650;9.612;2023-11-19T04:48:38;3.37;;;1.70;;
69795;SDS011;57073;45.650;9.612;2023-11-19T04:53:39;3.83;;;1.70;;
69795;SDS011;57073;45.650;9.612;2023-11-19T04:58:39;4.73;;;1.50;;
69795;SDS011;57073;45.650;9.612;2023-11-19T05:03:39;3.03;;;1.70;;
69795;SDS011;57073;45.650;9.612;2023-11-19T05:08:40;4.50;;;1.30;;
69795;SDS011;57073;45.650;9.612;2023-11-19T05:13:40;2.53;;;1.40;;
69795;SDS011;57073;45.650;9.612;2023-11-19T05:18:41;4.30;;;1.83;;
69795;SDS011;57073;45.650;9.612;2023-11-19T05:23:41;3.40;;;1.77;;
69795;SDS011;57073;45.650;9.612;2023-11-19T05:28:42;4.27;;;1.93;;
69795;SDS011;57073;45.650;9.612;2023-11-19T05:33:42;4.37;;;1.80;;
69795;SDS011;57073;45.650;9.612;2023-11-19T05:38:42;5.00;;;1.90;;
69795;SDS011;57073;45.650;9.612;2023-11-19T05:43:44;3.35;;;1.80;;
69795;SDS011;57073;45.650;9.612;2023-11-19T05:48:45;3.93;;;2.00;;
69795;SDS011;57073;45.650;9.612;2023-11-19T05:53:46;3.57;;;1.77;;
69795;SDS011;57073;45.650;9.612;2023-11-19T05:58:47;3.23;;;1.90;;
69795;SDS011;57073;45.650;9.612;2023-11-19T06:03:49;3.55;;;1.77;;
69795;SDS011;57073;45.650;9.612;2023-11-19T06:08:50;4.00;;;2.00;;
69795;SDS011;57073;45.650;9.612;2023-11-19T06:13:50;3.70;;;1.90;;
69795;SDS011;57073;45.650;9.612;2023-11-19T06:18:51;2.60;;;1.50;;
69795;SDS011;57073;45.650;9.612;2023-11-19T06:23:51;4.00;;;1.53;;
69795;SDS011;57073;45.650;9.612;2023-11-19T06:28:53;3.78;;;1.80;;
69795;SDS011;57073;45.650;9.612;2023-11-19T06:33:54;5.83;;;2.10;;
69795;SDS011;57073;45.650;9.612;2023-11-19T06:38:54;5.10;;;2.20;;
69795;SDS011;57073;45.650;9.612;2023-11-19T06:43:55;4.63;;;2.05;;
69795;SDS011;57073;45.650;9.612;2023-11-19T06:48:55;3.40;;;1.87;;
69795;SDS011;57073;45.650;9.612;2023-11-19T06:53:56;3.87;;;1.60;;
69795;SDS011;57073;45.650;9.612;2023-11-19T06:58:56;2.87;;;1.60;;
69795;SDS011;57073;45.650;9.612;2023-11-19T07:03:56;3.23;;;1.40;;
69795;SDS011;57073;45.650;9.612;2023-11-19T07:08:57;2.47;;;1.00;;
69795;SDS011;57073;45.650;9.612;2023-11-19T07:13:58;3.20;;;1.38;;
69795;SDS011;57073;45.650;9.612;2023-11-19T07:19:01;3.57;;;1.60;;
69795;SDS011;57073;45.650;9.612;2023-11-19T07:24:02;2.67;;;1.10;;
69795;SDS011;57073;45.650;9.612;2023-11-19T07:29:02;2.70;;;1.27;;
69795;SDS011;57073;45.650;9.612;2023-11-19T07:34:03;3.70;;;1.20;;
69795;SDS011;57073;45.650;9.612;2023-11-19T07:39:05;2.30;;;1.30;;
69795;SDS011;57073;45.650;9.612;2023-11-19T07:44:05;2.10;;;1.00;;
69795;SDS011;57073;45.650;9.612;2023-11-19T07:49:06;2.30;;;1.08;;
69795;SDS011;57073;45.650;9.612;2023-11-19T07:54:07;2.53;;;1.00;;
69795;SDS011;57073;45.650;9.612;2023-11-19T07:59:08;1.77;;;1.03;;
69795;SDS011;57073;45.650;9.612;2023-11-19T08:04:08;1.73;;;0.93;;
69795;SDS011;57073;45.650;9.612;2023-11-19T08:09:09;3.10;;;1.10;;
69795;SDS011;57073;45.650;9.612;2023-11-19T08:14:13;3.57;;;1.10;;
69795;SDS011;57073;45.650;9.612;2023-11-19T08:19:13;2.75;;;1.20;;
69795;SDS011;57073;45.650;9.612;2023-11-19T08:24:14;4.03;;;1.50;;
69795;SDS011;57073;45.650;9.612;2023-11-19T08:29:14;3.33;;;1.93;;
69795;SDS011;57073;45.650;9.612;2023-11-19T08:34:15;4.33;;;2.67;;
69795;SDS011;57073;45.650;9.612;2023-11-19T08:39:15;4.57;;;2.47;;
69795;SDS011;57073;45.650;9.612;2023-11-19T08:44:17;3.80;;;2.40;;
69795;SDS011;57073;45.650;9.612;2023-11-19T08:49:20;4.13;;;2.63;;
69795;SDS011;57073;45.650;9.612;2023-11-19T08:54:21;4.50;;;3.20;;
69795;SDS011;57073;45.650;9.612;2023-11-19T08:59:22;6.93;;;3.40;;
69795;SDS011;57073;45.650;9.612;2023-11-19T09:04:23;4.60;;;3.00;;
69795;SDS011;57073;45.650;9.612;2023-11-19T09:09:23;4.87;;;3.17;;
69795;SDS011;57073;45.650;9.612;2023-11-19T09:14:24;11.60;;;3.23;;
69795;SDS011;57073;45.650;9.612;2023-11-19T09:19:25;4.28;;;2.50;;
69795;SDS011;57073;45.650;9.612;2023-11-19T09:24:26;4.17;;;2.17;;
69795;SDS011;57073;45.650;9.612;2023-11-19T09:29:26;4.00;;;2.03;;
69795;SDS011;57073;45.650;9.612;2023-11-19T09:34:27;4.33;;;2.20;;
69795;SDS011;57073;45.650;9.612;2023-11-19T09:39:28;3.80;;;2.67;;
69795;SDS011;57073;45.650;9.612;2023-11-19T09:44:28;3.47;;;1.97;;
69795;SDS011;57073;45.650;9.612;2023-11-19T09:49:29;3.83;;;2.08;;
69795;SDS011;57073;45.650;9.612;2023-11-19T09:54:30;3.08;;;1.25;;
69795;SDS011;57073;45.650;9.612;2023-11-19T09:59:31;3.43;;;1.53;;
69795;SDS011;57073;45.650;9.612;2023-11-19T10:04:32;3.90;;;1.50;;
69795;SDS011;57073;45.650;9.612;2023-11-19T10:09:35;2.97;;;1.40;;
69795;SDS011;57073;45.650;9.612;2023-11-19T10:14:36;4.32;;;1.67;;
69795;SDS011;57073;45.650;9.612;2023-11-19T10:19:40;3.30;;;1.60;;
69795;SDS011;57073;45.650;9.612;2023-11-19T10:24:41;4.72;;;1.70;;
69795;SDS011;57073;45.650;9.612;2023-11-19T10:29:45;3.60;;;2.03;;
69795;SDS011;57073;45.650;9.612;2023-11-19T10:34:46;5.93;;;2.63;;
69795;SDS011;57073;45.650;9.612;2023-11-19T10:39:53;6.15;;;2.75;;
69795;SDS011;57073;45.650;9.612;2023-11-19T10:44:55;5.30;;;2.80;;
69795;SDS011;57073;45.650;9.612;2023-11-19T10:49:55;3.93;;;2.50;;
69795;SDS011;57073;45.650;9.612;2023-11-19T10:54:55;5.30;;;2.60;;
69795;SDS011;57073;45.650;9.612;2023-11-19T11:00:00;5.85;;;2.90;;
69795;SDS011;57073;45.650;9.612;2023-11-19T11:05:02;8.33;;;3.67;;
69795;SDS011;57073;45.650;9.612;2023-11-19T11:10:03;6.63;;;3.60;;
69795;SDS011;57073;45.650;9.612;2023-11-19T11:15:07;6.13;;;3.72;;
69795;SDS011;57073;45.650;9.612;2023-11-19T11:20:12;5.27;;;2.90;;
69795;SDS011;57073;45.650;9.612;2023-11-19T11:25:19;3.88;;;2.58;;
69795;SDS011;57073;45.650;9.612;2023-11-19T11:36:17;4.80;;;3.25;;
69795;SDS011;57073;45.650;9.612;2023-11-19T11:41:21;5.78;;;3.50;;
69795;SDS011;57073;45.650;9.612;2023-11-19T12:02:17;8.90;;;5.57;;
69795;SDS011;57073;45.650;9.612;2023-11-19T12:07:22;5.65;;;4.00;;
69795;SDS011;57073;45.650;9.612;2023-11-19T12:12:26;5.23;;;3.40;;
69795;SDS011;57073;45.650;9.612;2023-11-19T12:22:37;6.63;;;2.95;;
69795;SDS011;57073;45.650;9.612;2023-11-19T12:27:39;6.63;;;3.57;;
69795;SDS011;57073;45.650;9.612;2023-11-19T12:32:44;5.18;;;3.10;;
69795;SDS011;57073;45.650;9.612;2023-11-19T12:37:46;5.20;;;3.20;;
69795;SDS011;57073;45.650;9.612;2023-11-19T12:42:48;5.88;;;3.60;;
69795;SDS011;57073;45.650;9.612;2023-11-19T12:47:49;8.35;;;3.45;;
69795;SDS011;57073;45.650;9.612;2023-11-19T12:52:55;8.33;;;3.43;;
69795;SDS011;57073;45.650;9.612;2023-11-19T12:57:57;6.07;;;3.15;;
69795;SDS011;57073;45.650;9.612;2023-11-19T13:02:58;4.97;;;3.23;;
69795;SDS011;57073;45.650;9.612;2023-11-19T13:08:02;6.80;;;3.17;;
69795;SDS011;57073;45.650;9.612;2023-11-19T13:13:07;6.60;;;3.45;;
69795;SDS011;57073;45.650;9.612;2023-11-19T13:18:08;5.75;;;3.30;;
69795;SDS011;57073;45.650;9.612;2023-11-19T13:23:09;4.80;;;3.30;;
69795;SDS011;57073;45.650;9.612;2023-11-19T13:28:10;6.57;;;3.50;;
69795;SDS011;57073;45.650;9.612;2023-11-19T13:33:11;5.93;;;3.10;;
69795;SDS011;57073;45.650;9.612;2023-11-19T13:38:13;5.30;;;2.90;;
69795;SDS011;57073;45.650;9.612;2023-11-19T13:43:13;5.00;;;2.60;;
69795;SDS011;57073;45.650;9.612;2023-11-19T13:48:13;6.73;;;3.07;;
69795;SDS011;57073;45.650;9.612;2023-11-19T13:53:14;5.77;;;3.13;;
69795;SDS011;57073;45.650;9.612;2023-11-19T13:58:14;5.30;;;3.17;;
69795;SDS011;57073;45.650;9.612;2023-11-19T14:03:14;14.70;;;8.17;;
69795;SDS011;57073;45.650;9.612;2023-11-19T14:08:15;14.67;;;10.87;;
69795;SDS011;57073;45.650;9.612;2023-11-19T14:13:15;14.57;;;11.17;;
69795;SDS011;57073;45.650;9.612;2023-11-19T14:18:16;16.48;;;11.40;;
69795;SDS011;57073;45.650;9.612;2023-11-19T14:23:17;17.30;;;11.63;;
69795;SDS011;57073;45.650;9.612;2023-11-19T14:28:17;15.60;;;10.00;;
69795;SDS011;57073;45.650;9.612;2023-11-19T14:33:18;17.50;;;10.67;;
69795;SDS011;57073;45.650;9.612;2023-11-19T14:38:18;14.73;;;10.00;;
69795;SDS011;57073;45.650;9.612;2023-11-19T14:43:19;15.90;;;10.30;;
69795;SDS011;57073;45.650;9.612;2023-11-19T14:48:19;17.90;;;11.10;;
69795;SDS011;57073;45.650;9.612;2023-11-19T14:53:20;20.80;;;12.03;;
69795;SDS011;57073;45.650;9.612;2023-11-19T14:58:20;19.87;;;13.80;;
69795;SDS011;57073;45.650;9.612;2023-11-19T15:03:21;21.20;;;15.50;;
69795;SDS011;57073;45.650;9.612;2023-11-19T15:08:22;23.67;;;15.32;;
69795;SDS011;57073;45.650;9.612;2023-11-19T15:13:22;25.23;;;15.73;;
69795;SDS011;57073;45.650;9.612;2023-11-19T15:18:23;21.40;;;15.27;;
69795;SDS011;57073;45.650;9.612;2023-11-19T15:23:23;27.30;;;16.20;;
69795;SDS011;57073;45.650;9.612;2023-11-19T15:28:23;26.70;;;16.33;;
69795;SDS011;57073;45.650;9.612;2023-11-19T15:33:24;23.37;;;16.17;;
69795;SDS011;57073;45.650;9.612;2023-11-19T15:38:24;24.77;;;16.47;;
69795;SDS011;57073;45.650;9.612;2023-11-19T15:43:26;27.27;;;17.13;;
69795;SDS011;57073;45.650;9.612;2023-11-19T15:48:26;28.50;;;17.07;;
69795;SDS011;57073;45.650;9.612;2023-11-19T15:53:27;27.53;;;17.33;;
69795;SDS011;57073;45.650;9.612;2023-11-19T15:58:27;26.67;;;17.90;;
69795;SDS011;57073;45.650;9.612;2023-11-19T16:03:27;27.93;;;17.57;;
69795;SDS011;57073;45.650;9.612;2023-11-19T16:08:30;26.52;;;18.08;;
69795;SDS011;57073;45.650;9.612;2023-11-19T16:13:30;29.90;;;18.50;;
69795;SDS011;57073;45.650;9.612;2023-11-19T16:18:30;44.63;;;20.20;;
69795;SDS011;57073;45.650;9.612;2023-11-19T16:23:32;34.97;;;19.73;;
69795;SDS011;57073;45.650;9.612;2023-11-19T16:28:32;32.77;;;19.30;;
69795;SDS011;57073;45.650;9.612;2023-11-19T16:33:35;28.38;;;19.33;;
69795;SDS011;57073;45.650;9.612;2023-11-19T16:38:35;41.50;;;26.60;;
69795;SDS011;57073;45.650;9.612;2023-11-19T16:43:35;32.97;;;21.97;;
69795;SDS011;57073;45.650;9.612;2023-11-19T16:48:36;35.07;;;22.67;;
69795;SDS011;57073;45.650;9.612;2023-11-19T16:53:36;37.03;;;23.07;;
69795;SDS011;57073;45.650;9.612;2023-11-19T16:58:36;34.73;;;22.63;;
69795;SDS011;57073;45.650;9.612;2023-11-19T17:03:37;39.53;;;23.20;;
69795;SDS011;57073;45.650;9.612;2023-11-19T17:08:38;32.40;;;21.93;;
69795;SDS011;57073;45.650;9.612;2023-11-19T17:13:38;37.77;;;23.30;;
69795;SDS011;57073;45.650;9.612;2023-11-19T17:18:38;33.77;;;22.70;;
69795;SDS011;57073;45.650;9.612;2023-11-19T17:23:39;36.45;;;22.55;;
69795;SDS011;57073;45.650;9.612;2023-11-19T17:28:40;35.23;;;21.87;;
69795;SDS011;57073;45.650;9.612;2023-11-19T17:33:41;34.00;;;21.67;;
69795;SDS011;57073;45.650;9.612;2023-11-19T17:38:41;30.07;;;20.83;;
69795;SDS011;57073;45.650;9.612;2023-11-19T17:43:41;36.23;;;22.27;;
69795;SDS011;57073;45.650;9.612;2023-11-19T17:48:42;32.45;;;21.90;;
69795;SDS011;57073;45.650;9.612;2023-11-19T17:53:42;34.07;;;22.73;;
69795;SDS011;57073;45.650;9.612;2023-11-19T17:58:43;32.33;;;22.20;;
69795;SDS011;57073;45.650;9.612;2023-11-19T18:03:43;35.57;;;22.07;;
69795;SDS011;57073;45.650;9.612;2023-11-19T18:08:44;34.07;;;22.20;;
69795;SDS011;57073;45.650;9.612;2023-11-19T18:13:46;37.28;;;22.83;;
69795;SDS011;57073;45.650;9.612;2023-11-19T18:18:47;35.07;;;22.10;;
69795;SDS011;57073;45.650;9.612;2023-11-19T18:23:47;43.53;;;23.73;;
69795;SDS011;57073;45.650;9.612;2023-11-19T18:28:47;36.67;;;22.90;;
69795;SDS011;57073;45.650;9.612;2023-11-19T18:33:48;38.73;;;23.87;;
69795;SDS011;57073;45.650;9.612;2023-11-19T18:38:48;40.00;;;24.23;;
69795;SDS011;57073;45.650;9.612;2023-11-19T18:43:49;37.63;;;23.80;;
69795;SDS011;57073;45.650;9.612;2023-11-19T18:48:49;53.43;;;29.40;;
69795;SDS011;57073;45.650;9.612;2023-11-19T18:53:52;43.20;;;26.37;;
69795;SDS011;57073;45.650;9.612;2023-11-19T18:58:52;46.43;;;27.33;;
69795;SDS011;57073;45.650;9.612;2023-11-19T19:03:52;43.73;;;28.30;;
69795;SDS011;57073;45.650;9.612;2023-11-19T19:08:53;48.30;;;28.42;;
69795;SDS011;57073;45.650;9.612;2023-11-19T19:13:53;47.73;;;28.17;;
69795;SDS011;57073;45.650;9.612;2023-11-19T19:18:54;48.77;;;27.90;;
69795;SDS011;57073;45.650;9.612;2023-11-19T19:23:55;47.80;;;28.53;;
69795;SDS011;57073;45.650;9.612;2023-11-19T19:28:56;48.60;;;28.90;;
69795;SDS011;57073;45.650;9.612;2023-11-19T19:33:56;50.23;;;28.20;;
69795;SDS011;57073;45.650;9.612;2023-11-19T19:38:59;47.70;;;28.15;;
69795;SDS011;57073;45.650;9.612;2023-11-19T19:44:00;41.73;;;24.60;;
69795;SDS011;57073;45.650;9.612;2023-11-19T19:49:00;32.27;;;19.77;;
69795;SDS011;57073;45.650;9.612;2023-11-19T19:54:00;32.37;;;19.43;;
69795;SDS011;57073;45.650;9.612;2023-11-19T19:59:01;31.70;;;18.23;;
69795;SDS011;57073;45.650;9.612;2023-11-19T20:04:03;32.70;;;18.23;;
69795;SDS011;57073;45.650;9.612;2023-11-19T20:09:04;29.63;;;18.07;;
69795;SDS011;57073;45.650;9.612;2023-11-19T20:14:06;29.73;;;17.40;;
69795;SDS011;57073;45.650;9.612;2023-11-19T20:19:06;29.83;;;17.47;;
69795;SDS011;57073;45.650;9.612;2023-11-19T20:24:07;30.07;;;17.57;;
69795;SDS011;57073;45.650;9.612;2023-11-19T20:29:09;26.50;;;16.50;;
69795;SDS011;57073;45.650;9.612;2023-11-19T20:34:09;28.17;;;15.93;;
69795;SDS011;57073;45.650;9.612;2023-11-19T20:39:10;21.30;;;14.03;;
69795;SDS011;57073;45.650;9.612;2023-11-19T20:44:13;22.00;;;12.90;;
69795;SDS011;57073;45.650;9.612;2023-11-19T20:49:13;17.13;;;10.03;;
69795;SDS011;57073;45.650;9.612;2023-11-19T20:54:13;17.83;;;10.60;;
69795;SDS011;57073;45.650;9.612;2023-11-19T20:59:14;18.93;;;11.60;;
69795;SDS011;57073;45.650;9.612;2023-11-19T21:04:16;19.10;;;11.17;;
69795;SDS011;57073;45.650;9.612;2023-11-19T21:09:16;21.88;;;11.85;;
69795;SDS011;57073;45.650;9.612;2023-11-19T21:14:17;19.00;;;10.30;;
69795;SDS011;57073;45.650;9.612;2023-11-19T21:19:18;17.60;;;10.67;;
69795;SDS011;57073;45.650;9.612;2023-11-19T21:24:18;17.67;;;10.37;;
69795;SDS011;57073;45.650;9.612;2023-11-19T21:29:18;17.80;;;10.80;;
69795;SDS011;57073;45.650;9.612;2023-11-19T21:34:19;19.60;;;11.00;;
69795;SDS011;57073;45.650;9.612;2023-11-19T21:39:19;20.70;;;11.60;;
69795;SDS011;57073;45.650;9.612;2023-11-19T21:44:20;19.13;;;12.00;;
69795;SDS011;57073;45.650;9.612;2023-11-19T21:49:21;19.27;;;11.90;;
69795;SDS011;57073;45.650;9.612;2023-11-19T21:54:21;18.87;;;11.80;;
69795;SDS011;57073;45.650;9.612;2023-11-19T21:59:22;17.77;;;11.17;;
69795;SDS011;57073;45.650;9.612;2023-11-19T22:04:22;17.23;;;11.20;;
69795;SDS011;57073;45.650;9.612;2023-11-19T22:09:24;18.85;;;11.57;;
69795;SDS011;57073;45.650;9.612;2023-11-19T22:14:24;19.97;;;9.90;;
69795;SDS011;57073;45.650;9.612;2023-11-19T22:19:25;16.10;;;9.20;;
69795;SDS011;57073;45.650;9.612;2023-11-19T22:24:25;15.27;;;8.00;;
69795;SDS011;57073;45.650;9.612;2023-11-19T22:29:25;11.03;;;6.90;;
69795;SDS011;57073;45.650;9.612;2023-11-19T22:34:26;11.37;;;6.87;;
69795;SDS011;57073;45.650;9.612;2023-11-19T22:39:26;12.33;;;6.87;;
69795;SDS011;57073;45.650;9.612;2023-11-19T22:44:26;12.03;;;6.70;;
69795;SDS011;57073;45.650;9.612;2023-11-19T22:49:28;12.20;;;6.63;;
69795;SDS011;57073;45.650;9.612;2023-11-19T22:54:28;10.47;;;6.27;;
69795;SDS011;57073;45.650;9.612;2023-11-19T22:59:28;12.57;;;7.00;;
69795;SDS011;57073;45.650;9.612;2023-11-19T23:04:30;10.17;;;6.43;;
69795;SDS011;57073;45.650;9.612;2023-11-19T23:09:30;10.53;;;6.30;;
69795;SDS011;57073;45.650;9.612;2023-11-19T23:14:30;10.90;;;6.83;;
69795;SDS011;57073;45.650;9.612;2023-11-19T23:19:34;9.47;;;5.50;;
69795;SDS011;57073;45.650;9.612;2023-11-19T23:24:35;11.57;;;5.38;;
69795;SDS011;57073;45.650;9.612;2023-11-19T23:29:36;9.10;;;4.90;;
69795;SDS011;57073;45.650;9.612;2023-11-19T23:34:36;7.90;;;4.20;;
69795;SDS011;57073;45.650;9.612;2023-11-19T23:39:37;5.20;;;3.50;;
69795;SDS011;57073;45.650;9.612;2023-11-19T23:44:37;6.43;;;3.60;;
69795;SDS011;57073;45.650;9.612;2023-11-19T23:49:38;8.03;;;3.77;;
69795;SDS011;57073;45.650;9.612;2023-11-19T23:54:39;5.95;;;3.72;;
69795;SDS011;57073;45.650;9.612;2023-11-19T23:59:40;7.40;;;3.83;;
